sensor_id;sensor_type;location;lat;lon;timestamp;P1;durP1;ratioP1;P2;durP2;ratioP2
29044;SDS011;16133;49.486;12.176;2024-02-26T00:01:45;9.30;;;4.90;;
29044;SDS011;16133;49.486;12.176;2024-02-26T00:04:11;9.05;;;5.38;;
29044;SDS011;16133;49.486;12.176;2024-02-26T00:06:40;10.50;;;5.00;;
29044;SDS011;16133;49.486;12.176;2024-02-26T00:09:06;13.68;;;6.53;;
29044;SDS011;16133;49.486;12.176;2024-02-26T00:11:32;12.10;;;5.95;;
29044;SDS011;16133;49.486;12.176;2024-02-26T00:13:57;13.45;;;6.53;;
29044;SDS011;16133;49.486;12.176;2024-02-26T00:16:23;12.18;;;5.88;;
29044;SDS011;16133;49.486;12.176;2024-02-26T00:18:48;13.18;;;6.03;;
29044;SDS011;16133;49.486;12.176;2024-02-26T00:21:14;11.10;;;5.75;;
29044;SDS011;16133;49.486;12.176;2024-02-26T00:23:39;12.15;;;5.70;;
29044;SDS011;16133;49.486;12.176;2024-02-26T00:26:04;9.55;;;4.97;;
29044;SDS011;16133;49.486;12.176;2024-02-26T00:28:30;9.18;;;4.93;;
29044;SDS011;16133;49.486;12.176;2024-02-26T00:30:55;8.80;;;4.97;;
29044;SDS011;16133;49.486;12.176;2024-02-26T00:33:21;9.82;;;5.30;;
29044;SDS011;16133;49.486;12.176;2024-02-26T00:35:47;12.70;;;5.90;;
29044;SDS011;16133;49.486;12.176;2024-02-26T00:38:13;12.27;;;6.13;;
29044;SDS011;16133;49.486;12.176;2024-02-26T00:40:39;10.07;;;5.43;;
29044;SDS011;16133;49.486;12.176;2024-02-26T00:43:05;21.08;;;7.32;;
29044;SDS011;16133;49.486;12.176;2024-02-26T00:45:31;15.88;;;6.82;;
29044;SDS011;16133;49.486;12.176;2024-02-26T00:47:57;12.73;;;6.45;;
29044;SDS011;16133;49.486;12.176;2024-02-26T00:50:23;11.75;;;5.85;;
29044;SDS011;16133;49.486;12.176;2024-02-26T00:52:48;12.20;;;5.93;;
29044;SDS011;16133;49.486;12.176;2024-02-26T00:55:13;16.13;;;6.97;;
29044;SDS011;16133;49.486;12.176;2024-02-26T00:57:39;10.90;;;5.60;;
29044;SDS011;16133;49.486;12.176;2024-02-26T01:00:06;10.55;;;5.45;;
29044;SDS011;16133;49.486;12.176;2024-02-26T01:02:33;10.95;;;5.90;;
29044;SDS011;16133;49.486;12.176;2024-02-26T01:04:59;10.63;;;6.00;;
29044;SDS011;16133;49.486;12.176;2024-02-26T01:07:25;11.45;;;5.72;;
29044;SDS011;16133;49.486;12.176;2024-02-26T01:09:50;9.30;;;5.05;;
29044;SDS011;16133;49.486;12.176;2024-02-26T01:12:15;10.25;;;5.88;;
29044;SDS011;16133;49.486;12.176;2024-02-26T01:14:41;15.32;;;6.45;;
29044;SDS011;16133;49.486;12.176;2024-02-26T01:17:06;8.70;;;5.00;;
29044;SDS011;16133;49.486;12.176;2024-02-26T01:19:31;11.88;;;5.88;;
29044;SDS011;16133;49.486;12.176;2024-02-26T01:21:57;12.45;;;5.65;;
29044;SDS011;16133;49.486;12.176;2024-02-26T01:24:22;12.82;;;5.32;;
29044;SDS011;16133;49.486;12.176;2024-02-26T01:26:47;12.07;;;6.32;;
29044;SDS011;16133;49.486;12.176;2024-02-26T01:29:13;14.90;;;6.75;;
29044;SDS011;16133;49.486;12.176;2024-02-26T01:31:38;12.27;;;6.10;;
29044;SDS011;16133;49.486;12.176;2024-02-26T01:34:03;10.20;;;5.93;;
29044;SDS011;16133;49.486;12.176;2024-02-26T01:36:29;11.73;;;6.00;;
29044;SDS011;16133;49.486;12.176;2024-02-26T01:38:54;15.43;;;5.75;;
29044;SDS011;16133;49.486;12.176;2024-02-26T01:41:20;11.23;;;5.55;;
29044;SDS011;16133;49.486;12.176;2024-02-26T01:43:45;15.38;;;6.40;;
29044;SDS011;16133;49.486;12.176;2024-02-26T01:46:11;12.68;;;5.72;;
29044;SDS011;16133;49.486;12.176;2024-02-26T01:48:39;13.77;;;5.72;;
29044;SDS011;16133;49.486;12.176;2024-02-26T01:51:08;14.70;;;5.80;;
29044;SDS011;16133;49.486;12.176;2024-02-26T01:53:34;11.38;;;6.57;;
29044;SDS011;16133;49.486;12.176;2024-02-26T01:56:00;10.82;;;6.05;;
29044;SDS011;16133;49.486;12.176;2024-02-26T01:58:26;15.15;;;6.40;;
29044;SDS011;16133;49.486;12.176;2024-02-26T02:00:52;15.13;;;7.47;;
29044;SDS011;16133;49.486;12.176;2024-02-26T02:03:18;18.00;;;7.32;;
29044;SDS011;16133;49.486;12.176;2024-02-26T02:05:43;11.88;;;5.88;;
29044;SDS011;16133;49.486;12.176;2024-02-26T02:08:10;14.00;;;6.03;;
29044;SDS011;16133;49.486;12.176;2024-02-26T02:10:36;14.20;;;6.38;;
29044;SDS011;16133;49.486;12.176;2024-02-26T02:13:03;14.48;;;6.65;;
29044;SDS011;16133;49.486;12.176;2024-02-26T02:15:29;12.73;;;6.07;;
29044;SDS011;16133;49.486;12.176;2024-02-26T02:17:54;14.55;;;6.65;;
29044;SDS011;16133;49.486;12.176;2024-02-26T02:20:23;15.40;;;6.72;;
29044;SDS011;16133;49.486;12.176;2024-02-26T02:22:59;13.10;;;6.65;;
29044;SDS011;16133;49.486;12.176;2024-02-26T02:25:24;15.25;;;7.05;;
29044;SDS011;16133;49.486;12.176;2024-02-26T02:27:50;16.02;;;6.63;;
29044;SDS011;16133;49.486;12.176;2024-02-26T02:30:16;15.13;;;7.15;;
29044;SDS011;16133;49.486;12.176;2024-02-26T02:32:42;17.50;;;6.22;;
29044;SDS011;16133;49.486;12.176;2024-02-26T02:35:08;13.18;;;6.13;;
29044;SDS011;16133;49.486;12.176;2024-02-26T02:37:34;11.55;;;5.95;;
29044;SDS011;16133;49.486;12.176;2024-02-26T02:39:59;12.15;;;5.55;;
29044;SDS011;16133;49.486;12.176;2024-02-26T02:42:25;14.45;;;5.95;;
29044;SDS011;16133;49.486;12.176;2024-02-26T02:44:51;14.88;;;6.25;;
29044;SDS011;16133;49.486;12.176;2024-02-26T02:47:16;14.02;;;6.32;;
29044;SDS011;16133;49.486;12.176;2024-02-26T02:49:42;8.35;;;4.75;;
29044;SDS011;16133;49.486;12.176;2024-02-26T02:52:07;13.68;;;6.25;;
29044;SDS011;16133;49.486;12.176;2024-02-26T02:54:32;12.40;;;5.60;;
29044;SDS011;16133;49.486;12.176;2024-02-26T02:56:58;10.43;;;5.30;;
29044;SDS011;16133;49.486;12.176;2024-02-26T02:59:23;14.10;;;5.88;;
29044;SDS011;16133;49.486;12.176;2024-02-26T03:01:48;10.63;;;4.63;;
29044;SDS011;16133;49.486;12.176;2024-02-26T03:04:17;9.55;;;5.25;;
29044;SDS011;16133;49.486;12.176;2024-02-26T03:06:42;8.02;;;4.03;;
29044;SDS011;16133;49.486;12.176;2024-02-26T03:09:08;10.20;;;5.03;;
29044;SDS011;16133;49.486;12.176;2024-02-26T03:11:33;13.50;;;6.13;;
29044;SDS011;16133;49.486;12.176;2024-02-26T03:13:58;12.93;;;5.70;;
29044;SDS011;16133;49.486;12.176;2024-02-26T03:16:24;9.88;;;5.07;;
29044;SDS011;16133;49.486;12.176;2024-02-26T03:18:49;13.30;;;5.15;;
29044;SDS011;16133;49.486;12.176;2024-02-26T03:21:14;10.68;;;4.95;;
29044;SDS011;16133;49.486;12.176;2024-02-26T03:23:40;10.55;;;5.00;;
29044;SDS011;16133;49.486;12.176;2024-02-26T03:26:05;12.95;;;5.70;;
29044;SDS011;16133;49.486;12.176;2024-02-26T03:28:31;12.15;;;5.50;;
29044;SDS011;16133;49.486;12.176;2024-02-26T03:30:58;13.85;;;6.05;;
29044;SDS011;16133;49.486;12.176;2024-02-26T03:33:24;12.55;;;5.47;;
29044;SDS011;16133;49.486;12.176;2024-02-26T03:35:49;12.75;;;5.78;;
29044;SDS011;16133;49.486;12.176;2024-02-26T03:38:15;10.07;;;5.13;;
29044;SDS011;16133;49.486;12.176;2024-02-26T03:40:40;13.65;;;5.95;;
29044;SDS011;16133;49.486;12.176;2024-02-26T03:43:05;13.60;;;6.28;;
29044;SDS011;16133;49.486;12.176;2024-02-26T03:45:32;9.43;;;5.15;;
29044;SDS011;16133;49.486;12.176;2024-02-26T03:47:58;9.45;;;5.03;;
29044;SDS011;16133;49.486;12.176;2024-02-26T03:50:23;11.02;;;5.80;;
29044;SDS011;16133;49.486;12.176;2024-02-26T03:52:49;11.57;;;5.28;;
29044;SDS011;16133;49.486;12.176;2024-02-26T03:55:14;11.55;;;5.55;;
29044;SDS011;16133;49.486;12.176;2024-02-26T03:57:39;12.60;;;5.93;;
29044;SDS011;16133;49.486;12.176;2024-02-26T04:00:05;15.90;;;6.70;;
29044;SDS011;16133;49.486;12.176;2024-02-26T04:02:31;13.90;;;6.40;;
29044;SDS011;16133;49.486;12.176;2024-02-26T04:04:57;12.63;;;6.25;;
29044;SDS011;16133;49.486;12.176;2024-02-26T04:07:22;19.45;;;8.68;;
29044;SDS011;16133;49.486;12.176;2024-02-26T04:09:47;13.38;;;6.78;;
29044;SDS011;16133;49.486;12.176;2024-02-26T04:12:13;12.50;;;6.10;;
29044;SDS011;16133;49.486;12.176;2024-02-26T04:14:38;10.77;;;5.72;;
29044;SDS011;16133;49.486;12.176;2024-02-26T04:17:03;16.05;;;7.00;;
29044;SDS011;16133;49.486;12.176;2024-02-26T04:19:29;16.33;;;7.15;;
29044;SDS011;16133;49.486;12.176;2024-02-26T04:21:55;17.33;;;7.63;;
29044;SDS011;16133;49.486;12.176;2024-02-26T04:24:20;15.05;;;7.00;;
29044;SDS011;16133;49.486;12.176;2024-02-26T04:26:45;16.20;;;7.28;;
29044;SDS011;16133;49.486;12.176;2024-02-26T04:29:11;18.17;;;7.97;;
29044;SDS011;16133;49.486;12.176;2024-02-26T04:31:39;16.67;;;8.07;;
29044;SDS011;16133;49.486;12.176;2024-02-26T04:34:05;19.73;;;9.38;;
29044;SDS011;16133;49.486;12.176;2024-02-26T04:36:30;23.73;;;10.93;;
29044;SDS011;16133;49.486;12.176;2024-02-26T04:38:56;22.02;;;9.73;;
29044;SDS011;16133;49.486;12.176;2024-02-26T04:41:21;17.77;;;8.88;;
29044;SDS011;16133;49.486;12.176;2024-02-26T04:43:46;20.10;;;9.23;;
29044;SDS011;16133;49.486;12.176;2024-02-26T04:46:12;22.40;;;7.90;;
29044;SDS011;16133;49.486;12.176;2024-02-26T04:48:37;16.85;;;8.35;;
29044;SDS011;16133;49.486;12.176;2024-02-26T04:51:07;15.35;;;7.43;;
29044;SDS011;16133;49.486;12.176;2024-02-26T04:53:32;17.02;;;8.35;;
29044;SDS011;16133;49.486;12.176;2024-02-26T04:55:58;22.00;;;11.85;;
29044;SDS011;16133;49.486;12.176;2024-02-26T04:58:23;23.75;;;11.90;;
29044;SDS011;16133;49.486;12.176;2024-02-26T05:00:48;22.40;;;10.63;;
29044;SDS011;16133;49.486;12.176;2024-02-26T05:03:14;20.17;;;10.93;;
29044;SDS011;16133;49.486;12.176;2024-02-26T05:05:40;24.25;;;10.35;;
29044;SDS011;16133;49.486;12.176;2024-02-26T05:08:09;21.10;;;11.75;;
29044;SDS011;16133;49.486;12.176;2024-02-26T05:10:34;23.02;;;10.02;;
29044;SDS011;16133;49.486;12.176;2024-02-26T05:13:04;21.70;;;9.88;;
29044;SDS011;16133;49.486;12.176;2024-02-26T05:15:29;23.75;;;9.57;;
29044;SDS011;16133;49.486;12.176;2024-02-26T05:17:55;21.15;;;9.88;;
29044;SDS011;16133;49.486;12.176;2024-02-26T05:20:20;20.33;;;9.43;;
29044;SDS011;16133;49.486;12.176;2024-02-26T05:22:46;17.80;;;7.95;;
29044;SDS011;16133;49.486;12.176;2024-02-26T05:25:14;21.02;;;9.60;;
29044;SDS011;16133;49.486;12.176;2024-02-26T05:27:40;20.27;;;8.88;;
29044;SDS011;16133;49.486;12.176;2024-02-26T05:30:06;21.38;;;9.90;;
29044;SDS011;16133;49.486;12.176;2024-02-26T05:32:32;21.70;;;9.70;;
29044;SDS011;16133;49.486;12.176;2024-02-26T05:34:57;24.73;;;10.18;;
29044;SDS011;16133;49.486;12.176;2024-02-26T05:37:23;24.00;;;10.43;;
29044;SDS011;16133;49.486;12.176;2024-02-26T05:39:48;26.02;;;10.60;;
29044;SDS011;16133;49.486;12.176;2024-02-26T05:42:13;27.20;;;11.38;;
29044;SDS011;16133;49.486;12.176;2024-02-26T05:44:39;24.98;;;10.45;;
29044;SDS011;16133;49.486;12.176;2024-02-26T05:47:04;27.10;;;10.80;;
29044;SDS011;16133;49.486;12.176;2024-02-26T05:49:30;25.35;;;10.43;;
29044;SDS011;16133;49.486;12.176;2024-02-26T05:51:55;30.48;;;11.93;;
29044;SDS011;16133;49.486;12.176;2024-02-26T05:54:21;26.15;;;11.15;;
29044;SDS011;16133;49.486;12.176;2024-02-26T05:56:46;23.77;;;10.55;;
29044;SDS011;16133;49.486;12.176;2024-02-26T05:59:11;24.30;;;9.90;;
29044;SDS011;16133;49.486;12.176;2024-02-26T06:01:37;24.60;;;10.02;;
29044;SDS011;16133;49.486;12.176;2024-02-26T06:04:02;25.38;;;10.77;;
29044;SDS011;16133;49.486;12.176;2024-02-26T06:06:28;29.38;;;11.95;;
29044;SDS011;16133;49.486;12.176;2024-02-26T06:08:53;28.70;;;12.30;;
29044;SDS011;16133;49.486;12.176;2024-02-26T06:11:18;33.95;;;14.18;;
29044;SDS011;16133;49.486;12.176;2024-02-26T06:13:44;31.60;;;12.15;;
29044;SDS011;16133;49.486;12.176;2024-02-26T06:16:09;31.58;;;12.30;;
29044;SDS011;16133;49.486;12.176;2024-02-26T06:18:35;29.30;;;12.02;;
29044;SDS011;16133;49.486;12.176;2024-02-26T06:21:00;36.95;;;15.02;;
29044;SDS011;16133;49.486;12.176;2024-02-26T06:23:25;32.60;;;15.65;;
29044;SDS011;16133;49.486;12.176;2024-02-26T06:25:51;34.30;;;15.70;;
29044;SDS011;16133;49.486;12.176;2024-02-26T06:28:17;39.80;;;18.75;;
29044;SDS011;16133;49.486;12.176;2024-02-26T06:30:42;39.72;;;17.92;;
29044;SDS011;16133;49.486;12.176;2024-02-26T06:33:08;39.92;;;17.55;;
29044;SDS011;16133;49.486;12.176;2024-02-26T06:35:33;40.47;;;18.25;;
29044;SDS011;16133;49.486;12.176;2024-02-26T06:37:59;46.25;;;17.52;;
29044;SDS011;16133;49.486;12.176;2024-02-26T06:40:24;38.58;;;16.98;;
29044;SDS011;16133;49.486;12.176;2024-02-26T06:42:50;43.58;;;17.25;;
29044;SDS011;16133;49.486;12.176;2024-02-26T06:45:16;38.92;;;16.73;;
29044;SDS011;16133;49.486;12.176;2024-02-26T06:47:43;44.00;;;19.13;;
29044;SDS011;16133;49.486;12.176;2024-02-26T06:50:08;50.00;;;20.73;;
29044;SDS011;16133;49.486;12.176;2024-02-26T06:52:36;56.05;;;23.48;;
29044;SDS011;16133;49.486;12.176;2024-02-26T06:55:02;56.67;;;24.90;;
29044;SDS011;16133;49.486;12.176;2024-02-26T06:57:30;60.03;;;25.17;;
29044;SDS011;16133;49.486;12.176;2024-02-26T06:59:55;56.10;;;24.95;;
29044;SDS011;16133;49.486;12.176;2024-02-26T07:02:21;71.35;;;28.35;;
29044;SDS011;16133;49.486;12.176;2024-02-26T07:04:46;55.67;;;25.70;;
29044;SDS011;16133;49.486;12.176;2024-02-26T07:07:12;57.33;;;24.98;;
29044;SDS011;16133;49.486;12.176;2024-02-26T07:09:37;52.17;;;21.27;;
29044;SDS011;16133;49.486;12.176;2024-02-26T07:12:03;40.65;;;18.55;;
29044;SDS011;16133;49.486;12.176;2024-02-26T07:14:28;38.13;;;17.05;;
29044;SDS011;16133;49.486;12.176;2024-02-26T07:16:54;39.30;;;17.17;;
29044;SDS011;16133;49.486;12.176;2024-02-26T07:19:19;34.25;;;15.05;;
29044;SDS011;16133;49.486;12.176;2024-02-26T07:21:46;38.10;;;17.30;;
29044;SDS011;16133;49.486;12.176;2024-02-26T07:24:11;39.78;;;17.98;;
29044;SDS011;16133;49.486;12.176;2024-02-26T07:26:36;38.42;;;17.38;;
29044;SDS011;16133;49.486;12.176;2024-02-26T07:29:02;41.05;;;18.88;;
29044;SDS011;16133;49.486;12.176;2024-02-26T07:31:29;44.45;;;18.05;;
29044;SDS011;16133;49.486;12.176;2024-02-26T07:33:54;41.97;;;19.00;;
29044;SDS011;16133;49.486;12.176;2024-02-26T07:36:19;46.40;;;19.58;;
29044;SDS011;16133;49.486;12.176;2024-02-26T07:38:45;47.60;;;19.90;;
29044;SDS011;16133;49.486;12.176;2024-02-26T07:41:11;47.03;;;21.15;;
29044;SDS011;16133;49.486;12.176;2024-02-26T07:43:36;42.90;;;20.02;;
29044;SDS011;16133;49.486;12.176;2024-02-26T07:46:02;51.30;;;19.48;;
29044;SDS011;16133;49.486;12.176;2024-02-26T07:48:27;48.38;;;20.02;;
29044;SDS011;16133;49.486;12.176;2024-02-26T07:50:53;39.92;;;16.20;;
29044;SDS011;16133;49.486;12.176;2024-02-26T07:53:18;39.35;;;16.85;;
29044;SDS011;16133;49.486;12.176;2024-02-26T07:55:43;34.00;;;14.57;;
29044;SDS011;16133;49.486;12.176;2024-02-26T07:58:09;37.83;;;14.93;;
29044;SDS011;16133;49.486;12.176;2024-02-26T08:00:34;32.40;;;15.27;;
29044;SDS011;16133;49.486;12.176;2024-02-26T08:03:00;39.13;;;14.73;;
29044;SDS011;16133;49.486;12.176;2024-02-26T08:05:25;35.33;;;14.35;;
29044;SDS011;16133;49.486;12.176;2024-02-26T08:07:51;39.15;;;15.18;;
29044;SDS011;16133;49.486;12.176;2024-02-26T08:10:16;41.42;;;14.20;;
29044;SDS011;16133;49.486;12.176;2024-02-26T08:12:41;42.00;;;17.95;;
29044;SDS011;16133;49.486;12.176;2024-02-26T08:15:07;41.72;;;15.68;;
29044;SDS011;16133;49.486;12.176;2024-02-26T08:17:33;30.08;;;12.80;;
29044;SDS011;16133;49.486;12.176;2024-02-26T08:19:59;62.63;;;18.25;;
29044;SDS011;16133;49.486;12.176;2024-02-26T08:22:25;43.08;;;16.23;;
29044;SDS011;16133;49.486;12.176;2024-02-26T08:24:51;35.05;;;13.38;;
29044;SDS011;16133;49.486;12.176;2024-02-26T08:27:16;36.70;;;15.38;;
29044;SDS011;16133;49.486;12.176;2024-02-26T08:29:42;38.38;;;14.40;;
29044;SDS011;16133;49.486;12.176;2024-02-26T08:32:08;41.38;;;14.88;;
29044;SDS011;16133;49.486;12.176;2024-02-26T08:34:33;53.72;;;17.70;;
29044;SDS011;16133;49.486;12.176;2024-02-26T08:36:58;32.83;;;13.75;;
29044;SDS011;16133;49.486;12.176;2024-02-26T08:39:24;27.85;;;13.05;;
29044;SDS011;16133;49.486;12.176;2024-02-26T08:41:50;33.03;;;13.43;;
29044;SDS011;16133;49.486;12.176;2024-02-26T08:44:16;27.48;;;12.60;;
29044;SDS011;16133;49.486;12.176;2024-02-26T08:46:41;34.28;;;12.50;;
29044;SDS011;16133;49.486;12.176;2024-02-26T08:49:07;30.67;;;11.80;;
29044;SDS011;16133;49.486;12.176;2024-02-26T08:51:32;29.73;;;11.77;;
29044;SDS011;16133;49.486;12.176;2024-02-26T08:53:57;27.73;;;12.07;;
29044;SDS011;16133;49.486;12.176;2024-02-26T08:56:23;27.02;;;12.25;;
29044;SDS011;16133;49.486;12.176;2024-02-26T08:58:48;20.02;;;9.82;;
29044;SDS011;16133;49.486;12.176;2024-02-26T09:01:15;22.02;;;8.95;;
29044;SDS011;16133;49.486;12.176;2024-02-26T09:03:41;20.48;;;9.73;;
29044;SDS011;16133;49.486;12.176;2024-02-26T09:06:06;25.02;;;9.52;;
29044;SDS011;16133;49.486;12.176;2024-02-26T09:08:32;20.08;;;9.18;;
29044;SDS011;16133;49.486;12.176;2024-02-26T09:10:58;19.65;;;8.15;;
29044;SDS011;16133;49.486;12.176;2024-02-26T09:13:23;15.45;;;7.47;;
29044;SDS011;16133;49.486;12.176;2024-02-26T09:15:49;19.45;;;8.90;;
29044;SDS011;16133;49.486;12.176;2024-02-26T09:18:14;19.77;;;9.05;;
29044;SDS011;16133;49.486;12.176;2024-02-26T09:20:40;17.55;;;6.95;;
29044;SDS011;16133;49.486;12.176;2024-02-26T09:23:06;13.48;;;6.85;;
29044;SDS011;16133;49.486;12.176;2024-02-26T09:25:31;17.80;;;7.57;;
29044;SDS011;16133;49.486;12.176;2024-02-26T09:27:58;13.90;;;6.97;;
29044;SDS011;16133;49.486;12.176;2024-02-26T09:30:25;13.40;;;6.45;;
29044;SDS011;16133;49.486;12.176;2024-02-26T09:32:50;14.77;;;6.53;;
29044;SDS011;16133;49.486;12.176;2024-02-26T09:35:16;11.75;;;6.20;;
29044;SDS011;16133;49.486;12.176;2024-02-26T09:37:41;12.93;;;6.50;;
29044;SDS011;16133;49.486;12.176;2024-02-26T09:40:09;12.00;;;6.10;;
29044;SDS011;16133;49.486;12.176;2024-02-26T09:42:37;10.52;;;6.05;;
29044;SDS011;16133;49.486;12.176;2024-02-26T09:45:05;11.10;;;5.45;;
29044;SDS011;16133;49.486;12.176;2024-02-26T09:47:33;9.23;;;5.00;;
29044;SDS011;16133;49.486;12.176;2024-02-26T09:50:00;11.25;;;5.35;;
29044;SDS011;16133;49.486;12.176;2024-02-26T09:52:27;10.10;;;4.75;;
29044;SDS011;16133;49.486;12.176;2024-02-26T09:54:53;16.35;;;6.22;;
29044;SDS011;16133;49.486;12.176;2024-02-26T09:57:19;7.85;;;5.00;;
29044;SDS011;16133;49.486;12.176;2024-02-26T09:59:44;9.35;;;4.88;;
29044;SDS011;16133;49.486;12.176;2024-02-26T10:02:14;8.85;;;4.60;;
29044;SDS011;16133;49.486;12.176;2024-02-26T10:04:40;10.20;;;5.05;;
29044;SDS011;16133;49.486;12.176;2024-02-26T10:07:10;10.85;;;5.35;;
29044;SDS011;16133;49.486;12.176;2024-02-26T10:09:37;10.88;;;5.43;;
29044;SDS011;16133;49.486;12.176;2024-02-26T10:12:06;10.35;;;5.25;;
29044;SDS011;16133;49.486;12.176;2024-02-26T10:14:35;9.57;;;4.97;;
29044;SDS011;16133;49.486;12.176;2024-02-26T10:17:01;11.43;;;5.75;;
29044;SDS011;16133;49.486;12.176;2024-02-26T10:19:27;11.45;;;5.28;;
29044;SDS011;16133;49.486;12.176;2024-02-26T10:21:58;9.85;;;5.15;;
29044;SDS011;16133;49.486;12.176;2024-02-26T10:24:25;8.73;;;4.82;;
29044;SDS011;16133;49.486;12.176;2024-02-26T10:26:52;9.40;;;5.53;;
29044;SDS011;16133;49.486;12.176;2024-02-26T10:29:18;9.02;;;4.43;;
29044;SDS011;16133;49.486;12.176;2024-02-26T10:31:44;10.10;;;5.57;;
29044;SDS011;16133;49.486;12.176;2024-02-26T10:34:10;8.70;;;4.80;;
29044;SDS011;16133;49.486;12.176;2024-02-26T10:36:36;10.73;;;5.57;;
29044;SDS011;16133;49.486;12.176;2024-02-26T10:39:05;9.65;;;5.30;;
29044;SDS011;16133;49.486;12.176;2024-02-26T10:41:30;9.80;;;5.22;;
29044;SDS011;16133;49.486;12.176;2024-02-26T10:43:57;10.18;;;5.45;;
29044;SDS011;16133;49.486;12.176;2024-02-26T10:46:23;10.10;;;5.32;;
29044;SDS011;16133;49.486;12.176;2024-02-26T10:48:52;9.63;;;5.00;;
29044;SDS011;16133;49.486;12.176;2024-02-26T10:51:24;10.13;;;6.00;;
29044;SDS011;16133;49.486;12.176;2024-02-26T10:53:54;11.48;;;5.28;;
29044;SDS011;16133;49.486;12.176;2024-02-26T10:56:24;8.85;;;5.22;;
29044;SDS011;16133;49.486;12.176;2024-02-26T10:58:52;13.90;;;6.70;;
29044;SDS011;16133;49.486;12.176;2024-02-26T11:01:18;10.95;;;5.35;;
29044;SDS011;16133;49.486;12.176;2024-02-26T11:03:46;12.63;;;5.45;;
29044;SDS011;16133;49.486;12.176;2024-02-26T11:06:16;11.65;;;6.25;;
29044;SDS011;16133;49.486;12.176;2024-02-26T11:08:42;11.52;;;5.80;;
29044;SDS011;16133;49.486;12.176;2024-02-26T11:11:09;12.20;;;6.13;;
29044;SDS011;16133;49.486;12.176;2024-02-26T11:13:37;11.27;;;5.18;;
29044;SDS011;16133;49.486;12.176;2024-02-26T11:16:05;9.15;;;5.13;;
29044;SDS011;16133;49.486;12.176;2024-02-26T11:18:32;9.07;;;5.22;;
29044;SDS011;16133;49.486;12.176;2024-02-26T11:20:59;9.82;;;5.43;;
29044;SDS011;16133;49.486;12.176;2024-02-26T11:23:24;12.73;;;6.63;;
29044;SDS011;16133;49.486;12.176;2024-02-26T11:25:53;10.85;;;5.38;;
29044;SDS011;16133;49.486;12.176;2024-02-26T11:28:24;8.73;;;4.30;;
29044;SDS011;16133;49.486;12.176;2024-02-26T11:30:53;7.57;;;4.32;;
29044;SDS011;16133;49.486;12.176;2024-02-26T11:33:19;7.13;;;4.60;;
29044;SDS011;16133;49.486;12.176;2024-02-26T11:35:45;8.45;;;4.53;;
29044;SDS011;16133;49.486;12.176;2024-02-26T11:38:17;8.93;;;4.90;;
29044;SDS011;16133;49.486;12.176;2024-02-26T11:40:45;8.15;;;4.22;;
29044;SDS011;16133;49.486;12.176;2024-02-26T11:43:11;8.25;;;4.57;;
29044;SDS011;16133;49.486;12.176;2024-02-26T11:48:16;8.90;;;4.97;;
29044;SDS011;16133;49.486;12.176;2024-02-26T11:53:27;12.05;;;5.47;;
29044;SDS011;16133;49.486;12.176;2024-02-26T11:59:08;10.38;;;5.78;;
29044;SDS011;16133;49.486;12.176;2024-02-26T12:04:04;9.80;;;5.45;;
29044;SDS011;16133;49.486;12.176;2024-02-26T12:06:31;15.73;;;7.38;;
29044;SDS011;16133;49.486;12.176;2024-02-26T12:09:05;19.45;;;9.07;;
29044;SDS011;16133;49.486;12.176;2024-02-26T12:11:30;12.23;;;5.70;;
29044;SDS011;16133;49.486;12.176;2024-02-26T12:13:55;10.27;;;5.72;;
29044;SDS011;16133;49.486;12.176;2024-02-26T12:16:34;10.70;;;5.20;;
29044;SDS011;16133;49.486;12.176;2024-02-26T12:19:03;9.80;;;4.65;;
29044;SDS011;16133;49.486;12.176;2024-02-26T12:21:30;10.05;;;5.43;;
29044;SDS011;16133;49.486;12.176;2024-02-26T12:24:06;11.57;;;5.35;;
29044;SDS011;16133;49.486;12.176;2024-02-26T12:26:32;12.07;;;6.40;;
29044;SDS011;16133;49.486;12.176;2024-02-26T12:28:58;12.90;;;6.95;;
29044;SDS011;16133;49.486;12.176;2024-02-26T12:31:24;11.65;;;5.53;;
29044;SDS011;16133;49.486;12.176;2024-02-26T12:33:49;10.20;;;5.57;;
29044;SDS011;16133;49.486;12.176;2024-02-26T12:36:14;13.15;;;6.10;;
29044;SDS011;16133;49.486;12.176;2024-02-26T12:38:40;9.27;;;5.28;;
29044;SDS011;16133;49.486;12.176;2024-02-26T12:41:06;8.18;;;4.55;;
29044;SDS011;16133;49.486;12.176;2024-02-26T12:43:32;12.25;;;5.50;;
29044;SDS011;16133;49.486;12.176;2024-02-26T12:45:57;9.13;;;5.32;;
29044;SDS011;16133;49.486;12.176;2024-02-26T12:48:22;9.50;;;5.25;;
29044;SDS011;16133;49.486;12.176;2024-02-26T12:50:48;13.10;;;6.40;;
29044;SDS011;16133;49.486;12.176;2024-02-26T12:53:13;10.48;;;5.65;;
29044;SDS011;16133;49.486;12.176;2024-02-26T12:55:39;14.88;;;7.70;;
29044;SDS011;16133;49.486;12.176;2024-02-26T12:58:06;13.18;;;6.00;;
29044;SDS011;16133;49.486;12.176;2024-02-26T13:00:32;12.80;;;5.60;;
29044;SDS011;16133;49.486;12.176;2024-02-26T13:02:59;13.93;;;7.47;;
29044;SDS011;16133;49.486;12.176;2024-02-26T13:05:25;13.70;;;6.93;;
29044;SDS011;16133;49.486;12.176;2024-02-26T13:07:50;12.15;;;6.38;;
29044;SDS011;16133;49.486;12.176;2024-02-26T13:10:18;12.65;;;6.40;;
29044;SDS011;16133;49.486;12.176;2024-02-26T13:12:44;13.55;;;7.20;;
29044;SDS011;16133;49.486;12.176;2024-02-26T13:15:14;13.13;;;7.22;;
29044;SDS011;16133;49.486;12.176;2024-02-26T13:17:41;14.93;;;7.30;;
29044;SDS011;16133;49.486;12.176;2024-02-26T13:20:08;13.38;;;6.70;;
29044;SDS011;16133;49.486;12.176;2024-02-26T13:22:35;12.85;;;6.43;;
29044;SDS011;16133;49.486;12.176;2024-02-26T13:25:00;15.48;;;6.95;;
29044;SDS011;16133;49.486;12.176;2024-02-26T13:27:28;13.38;;;6.57;;
29044;SDS011;16133;49.486;12.176;2024-02-26T13:30:03;13.63;;;6.57;;
29044;SDS011;16133;49.486;12.176;2024-02-26T13:32:33;12.57;;;6.43;;
29044;SDS011;16133;49.486;12.176;2024-02-26T13:35:05;13.05;;;6.78;;
29044;SDS011;16133;49.486;12.176;2024-02-26T13:37:35;13.95;;;6.85;;
29044;SDS011;16133;49.486;12.176;2024-02-26T13:40:04;15.38;;;6.72;;
29044;SDS011;16133;49.486;12.176;2024-02-26T13:42:30;16.60;;;7.20;;
29044;SDS011;16133;49.486;12.176;2024-02-26T13:44:56;13.13;;;7.05;;
29044;SDS011;16133;49.486;12.176;2024-02-26T13:47:21;16.10;;;7.63;;
29044;SDS011;16133;49.486;12.176;2024-02-26T13:49:46;16.00;;;7.13;;
29044;SDS011;16133;49.486;12.176;2024-02-26T13:52:12;14.13;;;6.90;;
29044;SDS011;16133;49.486;12.176;2024-02-26T13:54:37;16.40;;;7.65;;
29044;SDS011;16133;49.486;12.176;2024-02-26T13:57:05;13.75;;;6.65;;
29044;SDS011;16133;49.486;12.176;2024-02-26T13:59:30;18.10;;;7.55;;
29044;SDS011;16133;49.486;12.176;2024-02-26T14:01:58;16.63;;;8.60;;
29044;SDS011;16133;49.486;12.176;2024-02-26T14:04:24;14.45;;;7.18;;
29044;SDS011;16133;49.486;12.176;2024-02-26T14:06:49;17.73;;;8.23;;
29044;SDS011;16133;49.486;12.176;2024-02-26T14:09:15;15.70;;;8.23;;
29044;SDS011;16133;49.486;12.176;2024-02-26T14:11:44;18.17;;;8.13;;
29044;SDS011;16133;49.486;12.176;2024-02-26T14:14:12;17.20;;;8.13;;
29044;SDS011;16133;49.486;12.176;2024-02-26T14:16:37;18.58;;;8.88;;
29044;SDS011;16133;49.486;12.176;2024-02-26T14:19:02;20.80;;;8.35;;
29044;SDS011;16133;49.486;12.176;2024-02-26T14:21:28;18.05;;;8.35;;
29044;SDS011;16133;49.486;12.176;2024-02-26T14:23:54;17.80;;;9.00;;
29044;SDS011;16133;49.486;12.176;2024-02-26T14:26:20;13.98;;;6.85;;